createdAt,value
2022-08-20T00:01:06.079Z,18.30
2022-08-20T00:02:44.063Z,18.30
2022-08-20T00:04:17.489Z,18.30
2022-08-20T00:05:56.741Z,18.30
2022-08-20T00:07:31.299Z,18.30
2022-08-20T00:09:05.792Z,18.30
2022-08-20T00:10:44.237Z,18.20
2022-08-20T00:12:22.032Z,18.20
2022-08-20T00:14:03.685Z,18.30
2022-08-20T00:15:38.959Z,18.20
2022-08-20T00:17:12.295Z,18.30
2022-08-20T00:18:47.627Z,18.30
2022-08-20T00:20:24.640Z,18.30
2022-08-20T00:21:58.705Z,18.30
2022-08-20T00:23:32.168Z,18.30
2022-08-20T00:25:08.207Z,18.30
2022-08-20T00:26:46.800Z,18.30
2022-08-20T00:28:26.120Z,18.20
2022-08-20T00:29:59.925Z,18.30
2022-08-20T00:31:33.760Z,18.30
2022-08-20T00:33:10.651Z,18.20
2022-08-20T00:34:44.110Z,18.20
2022-08-20T00:36:18.462Z,18.30
2022-08-20T00:37:51.930Z,18.20
2022-08-20T00:39:25.623Z,18.20
2022-08-20T00:40:59.596Z,18.20
2022-08-20T00:42:42.206Z,18.20
2022-08-20T00:44:22.510Z,18.20
2022-08-20T00:45:57.463Z,18.20
2022-08-20T00:47:30.757Z,18.20
2022-08-20T00:49:08.236Z,18.30
2022-08-20T00:50:41.627Z,18.20
2022-08-20T00:52:20.899Z,18.20
2022-08-20T00:53:57.596Z,18.20
2022-08-20T00:55:33.751Z,18.20
2022-08-20T00:57:12.544Z,18.20
2022-08-20T00:58:46.143Z,18.10
2022-08-20T01:00:27.046Z,18.10
2022-08-20T01:02:14.971Z,18.20
2022-08-20T01:03:55.553Z,18.10
2022-08-20T01:05:33.088Z,18.10
2022-08-20T01:07:12.006Z,18.10
2022-08-20T01:08:46.496Z,18.10
2022-08-20T01:10:28.970Z,18.10
2022-08-20T01:12:08.299Z,18.10
2022-08-20T01:13:49.279Z,18.10
2022-08-20T01:15:30.967Z,18.10
2022-08-20T01:17:14.393Z,18.10
2022-08-20T01:18:55.493Z,18.10
2022-08-20T01:20:36.914Z,18.10
2022-08-20T01:22:27.899Z,18.10
2022-08-20T01:24:11.938Z,18.00
2022-08-20T01:25:50.378Z,18.10
2022-08-20T01:27:25.510Z,18.00
2022-08-20T01:29:03.411Z,18.00
2022-08-20T01:30:37.766Z,18.10
2022-08-20T01:32:11.410Z,18.10
2022-08-20T01:33:46.781Z,18.00
2022-08-20T01:35:24.591Z,18.10
2022-08-20T01:36:59.563Z,18.00
2022-08-20T01:38:34.331Z,18.00
2022-08-20T01:40:15.409Z,18.00
2022-08-20T01:42:09.864Z,18.00
2022-08-20T01:43:42.559Z,18.00
2022-08-20T01:45:16.971Z,18.10
2022-08-20T01:46:55.638Z,18.10
2022-08-20T01:48:31.550Z,18.10
2022-08-20T01:50:18.780Z,18.10
2022-08-20T01:51:54.188Z,18.00
2022-08-20T01:53:34.396Z,18.10
2022-08-20T01:55:09.470Z,18.10
2022-08-20T01:56:59.054Z,18.10
2022-08-20T01:58:33.943Z,18.00
2022-08-20T02:00:19.794Z,18.10
2022-08-20T02:01:59.705Z,18.10
2022-08-20T02:03:39.700Z,18.10
2022-08-20T02:05:20.211Z,18.10
2022-08-20T02:07:00.307Z,18.10
2022-08-20T02:08:34.268Z,18.10
2022-08-20T02:10:10.428Z,18.10
2022-08-20T02:11:46.098Z,18.10
2022-08-20T02:13:20.920Z,18.10
2022-08-20T02:14:57.339Z,18.10
2022-08-20T02:16:37.645Z,18.10
2022-08-20T02:18:14.732Z,18.10
2022-08-20T02:19:54.695Z,18.10
2022-08-20T02:21:33.908Z,18.10
2022-08-20T02:23:08.486Z,18.10
2022-08-20T02:24:41.807Z,18.20
2022-08-20T02:26:18.890Z,18.10
2022-08-20T02:27:55.596Z,18.20
2022-08-20T02:29:30.404Z,18.20
2022-08-20T02:31:08.198Z,18.20
2022-08-20T02:32:44.439Z,18.20
2022-08-20T02:34:21.909Z,18.20
2022-08-20T02:35:57.654Z,18.20
2022-08-20T02:37:31.495Z,18.30
2022-08-20T02:39:05.647Z,18.30
2022-08-20T02:40:41.667Z,18.20
2022-08-20T02:42:15.166Z,18.20
2022-08-20T02:43:49.650Z,18.30
2022-08-20T02:45:23.983Z,18.30
2022-08-20T02:46:57.395Z,18.20
2022-08-20T02:48:31.548Z,18.20
2022-08-20T02:50:07.730Z,18.20
2022-08-20T02:51:41.414Z,18.30
2022-08-20T02:53:13.911Z,18.30
2022-08-20T02:54:47.972Z,18.30
2022-08-20T02:56:21.859Z,18.30
2022-08-20T02:57:55.716Z,18.30
2022-08-20T03:00:27.981Z,18.30
2022-08-20T03:02:02.887Z,18.30
2022-08-20T03:03:36.551Z,18.30
2022-08-20T03:05:11.121Z,18.40
2022-08-20T03:06:44.534Z,18.30
2022-08-20T03:08:17.636Z,18.40
2022-08-20T03:09:51.095Z,18.30
2022-08-20T03:11:24.672Z,18.40
2022-08-20T03:12:59.680Z,18.40
2022-08-20T03:14:33.611Z,18.40
2022-08-20T03:16:08.295Z,18.40
2022-08-20T03:17:43.204Z,18.40
2022-08-20T03:19:16.682Z,18.40
2022-08-20T03:20:52.145Z,18.40
2022-08-20T03:22:24.735Z,18.40
2022-08-20T03:23:58.451Z,18.40
2022-08-20T03:25:32.141Z,18.40
2022-08-20T03:27:06.407Z,18.40
2022-08-20T03:28:41.629Z,18.40
2022-08-20T03:30:17.723Z,18.40
2022-08-20T03:31:51.148Z,18.40
2022-08-20T03:33:26.703Z,18.40
2022-08-20T03:35:00.189Z,18.30
2022-08-20T03:36:33.812Z,18.30
2022-08-20T03:38:13.019Z,18.30
2022-08-20T03:39:46.748Z,18.40
2022-08-20T03:41:20.498Z,18.30
2022-08-20T03:42:53.878Z,18.30
2022-08-20T03:44:27.833Z,18.30
2022-08-20T03:46:02.148Z,18.30
2022-08-20T03:47:35.995Z,18.30
2022-08-20T03:49:10.914Z,18.30
2022-08-20T03:50:45.589Z,18.30
2022-08-20T03:52:19.375Z,18.30
2022-08-20T03:53:52.662Z,18.20
2022-08-20T03:55:27.727Z,18.20
2022-08-20T03:57:02.893Z,18.20
2022-08-20T03:58:37.774Z,18.20
2022-08-20T04:00:13.628Z,18.20
2022-08-20T04:01:48.189Z,18.20
2022-08-20T04:03:22.448Z,18.20
2022-08-20T04:04:57.282Z,18.20
2022-08-20T04:06:31.073Z,18.20
2022-08-20T04:08:05.501Z,18.10
2022-08-20T04:09:40.016Z,18.20
2022-08-20T04:11:13.683Z,18.20
2022-08-20T04:12:52.774Z,18.20
2022-08-20T04:14:26.709Z,18.10
2022-08-20T04:16:10.152Z,18.10
2022-08-20T04:17:51.324Z,18.10
2022-08-20T04:19:24.746Z,18.10
2022-08-20T04:20:59.508Z,18.10
2022-08-20T04:22:32.835Z,18.00
2022-08-20T04:24:07.614Z,18.10
2022-08-20T04:25:56.503Z,18.00
2022-08-20T04:27:32.495Z,18.00
2022-08-20T04:29:05.211Z,18.00
2022-08-20T04:30:38.886Z,18.00
2022-08-20T04:32:17.978Z,17.90
2022-08-20T04:33:51.680Z,17.90
2022-08-20T04:35:25.697Z,17.90
2022-08-20T04:37:00.356Z,17.90
2022-08-20T04:38:48.077Z,17.90
2022-08-20T04:40:41.689Z,17.80
2022-08-20T04:42:15.179Z,17.90
2022-08-20T04:43:49.307Z,17.80
2022-08-20T04:45:22.864Z,17.80
2022-08-20T04:46:56.355Z,17.80
2022-08-20T04:48:30.915Z,17.80
2022-08-20T04:50:10.535Z,17.70
2022-08-20T04:51:44.163Z,17.70
2022-08-20T04:53:25.789Z,17.70
2022-08-20T04:54:59.532Z,17.70
2022-08-20T04:56:39.858Z,17.60
2022-08-20T04:58:18.611Z,17.60
2022-08-20T04:59:55.567Z,17.60
2022-08-20T05:01:33.163Z,17.60
2022-08-20T05:03:07.134Z,17.60
2022-08-20T05:04:41.007Z,17.60
2022-08-20T05:06:15.962Z,17.50
2022-08-20T05:07:49.638Z,17.50
2022-08-20T05:09:25.126Z,17.50
2022-08-20T05:11:30.062Z,17.50
2022-08-20T05:12:56.464Z,17.50
2022-08-20T05:14:31.341Z,17.50
2022-08-20T05:16:05.404Z,17.50
2022-08-20T05:17:39.251Z,17.50
2022-08-20T05:19:14.548Z,17.50
2022-08-20T05:20:49.783Z,17.40
2022-08-20T05:22:24.323Z,17.50
2022-08-20T05:23:58.358Z,17.40
2022-08-20T05:25:33.910Z,17.40
2022-08-20T05:27:07.543Z,17.40
2022-08-20T05:28:54.373Z,17.40
2022-08-20T05:30:33.400Z,17.40
2022-08-20T05:32:08.028Z,17.40
2022-08-20T05:33:41.887Z,17.40
2022-08-20T05:35:15.227Z,17.40
2022-08-20T05:36:52.878Z,17.40
2022-08-20T05:38:30.918Z,17.40
2022-08-20T05:40:11.016Z,17.40
2022-08-20T05:41:46.095Z,17.40
2022-08-20T05:43:20.082Z,17.40
2022-08-20T05:44:53.385Z,17.40
2022-08-20T05:46:26.714Z,17.40
2022-08-20T05:48:00.305Z,17.40
2022-08-20T05:49:36.755Z,17.40
2022-08-20T05:51:15.034Z,17.40
2022-08-20T05:52:48.750Z,17.40
2022-08-20T05:54:23.830Z,17.40
2022-08-20T05:55:57.193Z,17.50
2022-08-20T05:57:31.847Z,17.40
2022-08-20T05:59:09.403Z,17.50
2022-08-20T06:00:42.815Z,17.50
2022-08-20T06:02:34.254Z,17.50
2022-08-20T06:04:28.556Z,17.50
2022-08-20T06:06:01.435Z,17.50
2022-08-20T06:07:35.024Z,17.50
2022-08-20T06:09:10.226Z,17.50
2022-08-20T06:10:44.463Z,17.50
2022-08-20T06:12:18.448Z,17.50
2022-08-20T06:13:52.147Z,17.50
2022-08-20T06:15:25.725Z,17.60
2022-08-20T06:17:05.657Z,17.60
2022-08-20T06:18:39.276Z,17.60
2022-08-20T06:20:13.631Z,17.60
2022-08-20T06:21:47.706Z,17.60
2022-08-20T06:23:23.127Z,17.60
2022-08-20T06:24:56.921Z,17.60
2022-08-20T06:26:31.752Z,17.60
2022-08-20T06:28:06.407Z,17.70
2022-08-20T06:29:41.658Z,17.60
2022-08-20T06:31:15.343Z,17.70
2022-08-20T06:32:49.174Z,17.70
2022-08-20T06:34:28.087Z,17.70
2022-08-20T06:36:02.664Z,17.70
2022-08-20T06:37:39.479Z,17.70
2022-08-20T06:39:12.982Z,17.70
2022-08-20T06:40:47.123Z,17.80
2022-08-20T06:42:21.869Z,17.80
2022-08-20T06:43:55.227Z,17.80
2022-08-20T06:45:33.598Z,17.80
2022-08-20T06:47:07.979Z,17.90
2022-08-20T06:48:42.336Z,17.90
2022-08-20T06:50:30.495Z,17.90
2022-08-20T06:52:05.663Z,17.90
2022-08-20T06:54:13.776Z,18.00
2022-08-20T06:55:52.746Z,18.00
2022-08-20T06:57:25.111Z,18.00
2022-08-20T06:58:58.713Z,18.00
2022-08-20T07:00:35.345Z,18.00
2022-08-20T07:02:09.955Z,18.00
2022-08-20T07:03:55.689Z,18.10
2022-08-20T07:05:29.765Z,18.10
2022-08-20T07:07:03.184Z,18.10
2022-08-20T07:08:37.121Z,18.10
2022-08-20T07:10:13.999Z,18.10
2022-08-20T07:11:56.639Z,18.20
2022-08-20T07:13:30.436Z,18.20
2022-08-20T07:15:06.054Z,18.20
2022-08-20T07:16:41.066Z,18.20
2022-08-20T07:18:15.185Z,18.20
2022-08-20T07:19:49.030Z,18.20
2022-08-20T07:21:22.371Z,18.20
2022-08-20T07:22:55.049Z,18.20
2022-08-20T07:24:33.257Z,18.20
2022-08-20T07:26:08.360Z,18.20
2022-08-20T07:27:43.499Z,18.20
2022-08-20T07:29:16.983Z,18.20
2022-08-20T07:31:14.336Z,18.20
2022-08-20T07:32:49.819Z,18.20
2022-08-20T07:34:23.198Z,18.20
2022-08-20T07:35:57.000Z,18.20
2022-08-20T07:37:30.437Z,18.20
2022-08-20T07:39:05.718Z,18.20
2022-08-20T07:40:39.883Z,18.20
2022-08-20T07:42:13.403Z,18.20
2022-08-20T07:43:48.976Z,18.20
2022-08-20T07:45:23.178Z,18.20
2022-08-20T07:46:56.859Z,18.30
2022-08-20T07:48:32.761Z,18.30
2022-08-20T07:50:09.270Z,18.30
2022-08-20T07:51:42.669Z,18.30
2022-08-20T07:53:16.965Z,18.30
2022-08-20T07:54:50.213Z,18.30
2022-08-20T07:56:24.958Z,18.40
2022-08-20T07:58:06.598Z,18.40
2022-08-20T07:59:40.087Z,18.40
2022-08-20T08:01:13.502Z,18.40
2022-08-20T08:02:47.083Z,18.40
2022-08-20T08:04:24.587Z,18.40
2022-08-20T08:05:57.992Z,18.40
2022-08-20T08:07:32.390Z,18.40
2022-08-20T08:09:14.310Z,18.40
2022-08-20T08:10:52.799Z,18.40
2022-08-20T08:12:39.258Z,18.40
2022-08-20T08:14:14.158Z,18.40
2022-08-20T08:15:50.395Z,18.50
2022-08-20T08:17:24.091Z,18.50
2022-08-20T08:18:58.392Z,18.50
2022-08-20T08:20:33.923Z,18.40
2022-08-20T08:22:21.226Z,18.50
2022-08-20T08:23:54.974Z,18.50
2022-08-20T08:25:28.875Z,18.50
2022-08-20T08:27:02.263Z,18.50
2022-08-20T08:28:36.951Z,18.50
2022-08-20T08:30:12.666Z,18.50
2022-08-20T08:31:46.383Z,18.50
2022-08-20T08:33:32.376Z,18.50
2022-08-20T08:35:09.083Z,18.50
2022-08-20T08:36:45.438Z,18.60
2022-08-20T08:38:18.979Z,18.60
2022-08-20T08:39:52.562Z,18.60
2022-08-20T08:41:32.023Z,18.70
2022-08-20T08:43:06.347Z,18.60
2022-08-20T08:44:43.263Z,18.70
2022-08-20T08:46:22.548Z,18.80
2022-08-20T08:47:59.323Z,18.80
2022-08-20T08:49:37.445Z,18.80
2022-08-20T08:51:16.351Z,18.80
2022-08-20T08:52:54.911Z,18.80
2022-08-20T08:54:32.390Z,18.90
2022-08-20T08:56:07.512Z,18.90
2022-08-20T08:57:41.870Z,18.90
2022-08-20T08:59:15.321Z,18.90
2022-08-20T09:00:57.616Z,18.90
2022-08-20T09:02:38.629Z,19.00
2022-08-20T09:04:13.239Z,19.00
2022-08-20T09:05:51.804Z,19.00
2022-08-20T09:07:32.324Z,19.00
2022-08-20T09:09:12.229Z,19.00
2022-08-20T09:10:46.234Z,19.00
2022-08-20T09:12:23.537Z,19.10
2022-08-20T09:13:58.478Z,19.00
2022-08-20T09:15:31.928Z,19.10
2022-08-20T09:17:06.645Z,19.10
2022-08-20T09:18:40.094Z,19.10
2022-08-20T09:20:14.244Z,19.20
2022-08-20T09:21:48.168Z,19.20
2022-08-20T09:23:22.044Z,19.20
2022-08-20T09:24:56.937Z,19.20
2022-08-20T09:26:30.503Z,19.30
2022-08-20T09:28:04.512Z,19.30
2022-08-20T09:29:39.618Z,19.30
2022-08-20T09:31:13.171Z,19.40
2022-08-20T09:32:50.642Z,19.40
2022-08-20T09:34:23.993Z,19.50
2022-08-20T09:35:57.360Z,19.50
2022-08-20T09:37:37.310Z,19.60
2022-08-20T09:39:12.486Z,19.60
2022-08-20T09:40:47.896Z,19.70
2022-08-20T09:42:24.751Z,19.80
2022-08-20T09:43:58.698Z,19.80
2022-08-20T09:45:32.748Z,19.90
2022-08-20T09:47:06.746Z,19.90
2022-08-20T09:48:40.000Z,20.00
2022-08-20T09:50:13.565Z,20.10
2022-08-20T09:51:46.976Z,20.10
2022-08-20T09:53:22.823Z,20.20
2022-08-20T09:55:02.446Z,20.20
2022-08-20T09:56:37.221Z,20.30
2022-08-20T09:58:21.579Z,20.30
2022-08-20T10:00:00.690Z,20.30
2022-08-20T10:01:34.845Z,20.40
2022-08-20T10:03:08.264Z,20.50
2022-08-20T10:04:41.916Z,20.50
2022-08-20T10:06:16.627Z,20.50
2022-08-20T10:07:50.200Z,20.60
2022-08-20T10:09:24.304Z,20.60
2022-08-20T10:10:57.615Z,20.70
2022-08-20T10:12:32.494Z,20.70
2022-08-20T10:14:07.256Z,20.80
2022-08-20T10:15:41.945Z,20.90
2022-08-20T10:17:16.560Z,21.00
2022-08-20T10:18:50.343Z,21.00
2022-08-20T10:20:24.959Z,21.10
2022-08-20T10:21:59.618Z,21.10
2022-08-20T10:23:33.558Z,21.10
2022-08-20T10:25:07.984Z,21.10
2022-08-20T10:26:41.503Z,21.10
2022-08-20T10:28:16.490Z,21.10
2022-08-20T10:29:50.443Z,21.10
2022-08-20T10:31:23.858Z,21.10
2022-08-20T10:32:57.310Z,21.10
2022-08-20T10:34:30.999Z,21.20
2022-08-20T10:36:08.483Z,21.20
2022-08-20T10:37:42.253Z,21.20
2022-08-20T10:39:16.605Z,21.30
2022-08-20T10:40:52.547Z,21.30
2022-08-20T10:42:26.009Z,21.30
2022-08-20T10:44:01.195Z,21.40
2022-08-20T10:45:35.246Z,21.40
2022-08-20T10:47:22.131Z,21.40
2022-08-20T10:48:55.852Z,21.40
2022-08-20T10:50:30.543Z,21.50
2022-08-20T10:52:05.922Z,21.40
2022-08-20T10:53:39.622Z,21.50
2022-08-20T10:55:12.971Z,21.50
2022-08-20T10:56:46.540Z,21.50
2022-08-20T10:58:20.312Z,21.50
2022-08-20T11:00:00.841Z,21.60
2022-08-20T11:01:36.928Z,21.60
2022-08-20T11:03:10.471Z,21.70
2022-08-20T11:04:44.805Z,21.70
2022-08-20T11:06:18.169Z,21.70
2022-08-20T11:07:56.549Z,21.80
2022-08-20T11:09:30.371Z,21.80
2022-08-20T11:11:04.625Z,21.80
2022-08-20T11:12:38.334Z,21.80
2022-08-20T11:14:11.761Z,21.90
2022-08-20T11:15:47.111Z,21.90
2022-08-20T11:17:23.011Z,21.90
2022-08-20T11:18:56.351Z,22.00
2022-08-20T11:20:31.399Z,21.90
2022-08-20T11:22:05.266Z,22.00
2022-08-20T11:23:38.639Z,22.00
2022-08-20T11:25:11.359Z,22.00
2022-08-20T11:26:48.659Z,22.10
2022-08-20T11:28:31.181Z,22.10
2022-08-20T11:30:08.471Z,22.10
2022-08-20T11:31:43.528Z,22.10
2022-08-20T11:33:16.947Z,22.10
2022-08-20T11:34:53.079Z,22.10
2022-08-20T11:36:27.086Z,22.10
2022-08-20T11:38:01.535Z,22.10
2022-08-20T11:39:37.484Z,22.20
2022-08-20T11:41:15.002Z,22.20
2022-08-20T11:43:11.162Z,22.20
2022-08-20T11:44:41.821Z,22.20
2022-08-20T11:46:15.482Z,22.30
2022-08-20T11:47:50.635Z,22.30
2022-08-20T11:49:23.970Z,22.30
2022-08-20T11:50:57.725Z,22.30
2022-08-20T11:52:31.669Z,22.30
2022-08-20T11:54:05.399Z,22.40
2022-08-20T11:55:40.855Z,22.40
2022-08-20T11:57:14.974Z,22.50
2022-08-20T11:58:48.897Z,22.50
2022-08-20T12:00:32.220Z,22.60
2022-08-20T12:02:11.706Z,22.60
2022-08-20T12:03:47.599Z,22.60
2022-08-20T12:05:21.503Z,22.70
2022-08-20T12:06:55.093Z,22.70
2022-08-20T12:08:30.386Z,22.80
2022-08-20T12:10:06.810Z,22.80
2022-08-20T12:11:40.899Z,22.90
2022-08-20T12:13:14.318Z,22.90
2022-08-20T12:14:47.763Z,23.00
2022-08-20T12:16:21.495Z,23.00
2022-08-20T12:17:56.043Z,23.10
2022-08-20T12:19:31.097Z,23.10
2022-08-20T12:21:04.591Z,23.20
2022-08-20T12:22:38.227Z,23.30
2022-08-20T12:24:11.593Z,23.30
2022-08-20T12:25:45.202Z,23.30
2022-08-20T12:27:23.049Z,23.40
2022-08-20T12:28:56.557Z,23.40
2022-08-20T12:30:29.952Z,23.40
2022-08-20T12:32:05.276Z,23.50
2022-08-20T12:33:38.673Z,23.50
2022-08-20T12:35:16.090Z,23.60
2022-08-20T12:36:49.524Z,23.70
2022-08-20T12:38:23.048Z,23.70
2022-08-20T12:39:59.943Z,23.80
2022-08-20T12:41:34.407Z,23.80
2022-08-20T12:43:08.442Z,23.80
2022-08-20T12:44:43.762Z,23.90
2022-08-20T12:46:17.432Z,23.90
2022-08-20T12:47:50.891Z,24.00
2022-08-20T12:49:24.243Z,24.00
2022-08-20T12:50:59.051Z,24.00
2022-08-20T12:52:33.983Z,24.10
2022-08-20T12:54:07.351Z,24.10
2022-08-20T12:55:40.775Z,24.10
2022-08-20T12:57:25.083Z,24.10
2022-08-20T12:58:58.376Z,24.10
2022-08-20T13:00:35.203Z,24.10
2022-08-20T13:02:14.441Z,24.10
2022-08-20T13:03:52.443Z,24.20
2022-08-20T13:05:27.448Z,24.20
2022-08-20T13:07:05.018Z,24.20
2022-08-20T13:08:42.609Z,24.30
2022-08-20T13:10:22.111Z,24.30
2022-08-20T13:11:55.652Z,24.30
2022-08-20T13:13:29.243Z,24.40
2022-08-20T13:15:01.824Z,24.40
2022-08-20T13:16:35.328Z,24.50
2022-08-20T13:18:09.410Z,24.50
2022-08-20T13:19:44.927Z,24.50
2022-08-20T13:21:21.107Z,24.60
2022-08-20T13:22:59.405Z,24.60
2022-08-20T13:24:32.870Z,24.60
2022-08-20T13:26:06.398Z,24.70
2022-08-20T13:27:43.043Z,24.70
2022-08-20T13:29:18.021Z,24.70
2022-08-20T13:30:51.614Z,24.70
2022-08-20T13:32:25.945Z,24.80
2022-08-20T13:33:59.454Z,24.80
2022-08-20T13:35:33.216Z,24.90
2022-08-20T13:37:14.204Z,24.90
2022-08-20T13:38:49.466Z,24.90
2022-08-20T13:40:23.117Z,25.00
2022-08-20T13:41:56.493Z,25.00
2022-08-20T13:43:29.794Z,25.10
2022-08-20T13:45:03.947Z,25.10
2022-08-20T13:46:38.420Z,25.10
2022-08-20T13:48:15.126Z,25.20
2022-08-20T13:49:56.624Z,25.20
2022-08-20T13:51:30.600Z,25.30
2022-08-20T13:53:04.350Z,25.30
2022-08-20T13:54:42.340Z,25.40
2022-08-20T13:56:16.013Z,25.40
2022-08-20T13:57:50.000Z,25.50
2022-08-20T13:59:24.116Z,25.50
2022-08-20T14:00:57.516Z,25.50
2022-08-20T14:02:31.140Z,25.50
2022-08-20T14:04:05.227Z,25.60
2022-08-20T14:05:39.764Z,25.60
2022-08-20T14:07:16.941Z,25.60
2022-08-20T14:08:50.257Z,25.70
2022-08-20T14:10:37.981Z,25.70
2022-08-20T14:12:13.316Z,25.80
2022-08-20T14:13:46.708Z,25.80
2022-08-20T14:15:20.215Z,25.80
2022-08-20T14:16:53.602Z,25.90
2022-08-20T14:18:26.941Z,25.90
2022-08-20T14:20:03.027Z,25.90
2022-08-20T14:21:37.054Z,26.00
2022-08-20T14:23:11.348Z,26.00
2022-08-20T14:24:45.553Z,26.00
2022-08-20T14:26:20.790Z,26.00
2022-08-20T14:27:55.415Z,26.00
2022-08-20T14:29:29.255Z,26.10
2022-08-20T14:31:09.315Z,26.00
2022-08-20T14:32:43.173Z,26.10
2022-08-20T14:34:16.758Z,26.10
2022-08-20T14:35:50.439Z,26.10
2022-08-20T14:37:28.291Z,26.20
2022-08-20T14:39:01.598Z,26.10
2022-08-20T14:40:36.714Z,26.20
2022-08-20T14:42:10.858Z,26.10
2022-08-20T14:43:44.342Z,26.10
2022-08-20T14:45:18.871Z,26.20
2022-08-20T14:46:52.215Z,26.20
2022-08-20T14:48:28.002Z,26.20
2022-08-20T14:50:06.546Z,26.20
2022-08-20T14:51:39.970Z,26.20
2022-08-20T14:53:13.493Z,26.20
2022-08-20T14:54:48.459Z,26.30
2022-08-20T14:56:22.083Z,26.30
2022-08-20T14:57:57.483Z,26.30
2022-08-20T14:59:30.177Z,26.30
2022-08-20T15:01:03.636Z,26.30
2022-08-20T15:02:38.150Z,26.30
2022-08-20T15:04:11.438Z,26.30
2022-08-20T15:05:45.342Z,26.30
2022-08-20T15:07:26.170Z,26.30
2022-08-20T15:08:59.804Z,26.30
2022-08-20T15:10:34.986Z,26.30
2022-08-20T15:12:08.842Z,26.30
2022-08-20T15:13:44.059Z,26.30
2022-08-20T15:15:19.511Z,26.30
2022-08-20T15:16:53.271Z,26.30
2022-08-20T15:18:26.935Z,26.40
2022-08-20T15:20:08.563Z,26.40
2022-08-20T15:21:53.446Z,26.40
2022-08-20T15:23:27.051Z,26.40
2022-08-20T15:25:00.390Z,26.40
2022-08-20T15:26:34.383Z,26.30
2022-08-20T15:28:10.906Z,26.40
2022-08-20T15:29:45.074Z,26.40
2022-08-20T15:31:18.624Z,26.40
2022-08-20T15:32:54.984Z,26.40
2022-08-20T15:34:28.936Z,26.40
2022-08-20T15:36:02.453Z,26.40
2022-08-20T15:37:40.307Z,26.40
2022-08-20T15:39:13.752Z,26.40
2022-08-20T15:40:47.483Z,26.30
2022-08-20T15:42:23.476Z,26.30
2022-08-20T15:43:57.954Z,26.30
2022-08-20T15:45:34.236Z,26.30
2022-08-20T15:47:23.774Z,26.20
2022-08-20T15:48:57.733Z,26.20
2022-08-20T15:51:03.935Z,26.10
2022-08-20T15:52:43.489Z,26.00
2022-08-20T15:54:22.724Z,25.90
2022-08-20T15:56:07.812Z,25.80
2022-08-20T15:57:56.435Z,25.70
2022-08-20T15:59:53.875Z,25.50
2022-08-20T16:01:43.138Z,25.50
2022-08-20T16:03:45.201Z,25.40
2022-08-20T16:05:33.355Z,25.20
2022-08-20T16:07:15.750Z,25.20
2022-08-20T16:09:15.538Z,25.10
2022-08-20T16:11:04.925Z,25.00
2022-08-20T16:12:42.082Z,25.00
2022-08-20T16:14:20.050Z,24.90
2022-08-20T16:15:57.618Z,24.80
2022-08-20T16:17:40.487Z,24.80
2022-08-20T16:19:22.404Z,24.70
2022-08-20T16:21:00.635Z,24.60
2022-08-20T16:22:43.976Z,24.50
2022-08-20T16:24:19.891Z,24.50
2022-08-20T16:26:18.963Z,24.50
2022-08-20T16:28:06.146Z,24.40
2022-08-20T16:29:54.538Z,24.40
2022-08-20T16:31:40.907Z,24.30
2022-08-20T16:33:32.083Z,24.30
2022-08-20T16:35:29.661Z,24.20
2022-08-20T16:37:17.962Z,24.20
2022-08-20T16:38:57.551Z,24.10
2022-08-20T16:40:39.806Z,24.00
2022-08-20T16:42:13.320Z,24.00
2022-08-20T16:43:53.132Z,23.90
2022-08-20T16:45:31.327Z,23.90
2022-08-20T16:47:18.202Z,23.80
2022-08-20T16:48:58.171Z,23.80
2022-08-20T16:50:40.898Z,23.70
2022-08-20T16:52:14.501Z,23.60
2022-08-20T16:53:48.122Z,23.60
2022-08-20T16:55:24.131Z,23.50
2022-08-20T16:57:06.063Z,23.40
2022-08-20T16:58:40.640Z,23.40
2022-08-20T17:00:23.508Z,23.30
2022-08-20T17:02:10.738Z,23.20
2022-08-20T17:03:51.262Z,23.20
2022-08-20T17:05:44.233Z,23.10
2022-08-20T17:07:31.066Z,23.10
2022-08-20T17:09:14.262Z,23.10
2022-08-20T17:11:02.432Z,23.00
2022-08-20T17:12:36.612Z,23.00
2022-08-20T17:14:14.375Z,23.00
2022-08-20T17:15:57.523Z,22.90
2022-08-20T17:17:35.498Z,22.90
2022-08-20T17:19:14.840Z,22.80
2022-08-20T17:20:48.666Z,22.80
2022-08-20T17:22:23.115Z,22.80
2022-08-20T17:24:01.229Z,22.70
2022-08-20T17:25:38.556Z,22.70
2022-08-20T17:27:16.908Z,22.60
2022-08-20T17:28:53.058Z,22.60
2022-08-20T17:30:36.635Z,22.60
2022-08-20T17:32:21.782Z,22.60
2022-08-20T17:33:55.092Z,22.60
2022-08-20T17:35:36.129Z,22.50
2022-08-20T17:37:22.349Z,22.40
2022-08-20T17:39:00.387Z,22.40
2022-08-20T17:40:45.923Z,22.40
2022-08-20T17:42:22.718Z,22.30
2022-08-20T17:44:03.461Z,22.30
2022-08-20T17:45:44.036Z,22.30
2022-08-20T17:47:24.562Z,22.20
2022-08-20T17:49:01.431Z,22.20
2022-08-20T17:50:40.458Z,22.20
2022-08-20T17:52:26.643Z,22.20
2022-08-20T17:54:15.627Z,22.10
2022-08-20T17:55:55.720Z,22.10
2022-08-20T17:57:38.403Z,22.10
2022-08-20T17:59:33.538Z,22.10
2022-08-20T18:01:15.779Z,22.10
2022-08-20T18:02:49.380Z,22.00
2022-08-20T18:04:22.989Z,22.00
2022-08-20T18:06:06.900Z,22.00
2022-08-20T18:08:02.435Z,22.00
2022-08-20T18:09:51.166Z,21.90
2022-08-20T18:11:33.073Z,21.80
2022-08-20T18:13:18.654Z,21.80
2022-08-20T18:15:09.051Z,21.80
2022-08-20T18:17:06.212Z,21.70
2022-08-20T18:18:55.048Z,21.70
2022-08-20T18:20:51.110Z,21.60
2022-08-20T18:22:30.186Z,21.60
2022-08-20T18:24:13.031Z,21.50
2022-08-20T18:25:53.955Z,21.50
2022-08-20T18:27:34.663Z,21.40
2022-08-20T18:29:16.236Z,21.40
2022-08-20T18:30:54.176Z,21.30
2022-08-20T18:32:35.512Z,21.30
2022-08-20T18:34:15.168Z,21.20
2022-08-20T18:35:48.527Z,21.10
2022-08-20T18:37:28.935Z,21.10
2022-08-20T18:39:08.914Z,21.10
2022-08-20T18:40:42.591Z,21.00
2022-08-20T18:42:30.040Z,21.00
2022-08-20T18:44:09.057Z,20.90
2022-08-20T18:45:43.828Z,20.90
2022-08-20T18:47:25.287Z,20.80
2022-08-20T18:49:02.900Z,20.70
2022-08-20T18:50:49.207Z,20.70
2022-08-20T18:52:29.434Z,20.60
2022-08-20T18:54:04.233Z,20.60
2022-08-20T18:55:44.368Z,20.50
2022-08-20T18:57:23.956Z,20.50
2022-08-20T18:59:03.703Z,20.50
2022-08-20T19:00:44.937Z,20.40
2022-08-20T19:02:25.231Z,20.30
2022-08-20T19:03:59.027Z,20.30
2022-08-20T19:05:43.759Z,20.30
2022-08-20T19:07:18.371Z,20.20
2022-08-20T19:09:02.126Z,20.20
2022-08-20T19:10:54.298Z,20.10
2022-08-20T19:13:27.238Z,20.00
2022-08-20T19:15:08.737Z,20.00
2022-08-20T19:16:48.250Z,19.90
2022-08-20T19:18:28.953Z,19.90
2022-08-20T19:20:06.136Z,19.80
2022-08-20T19:21:42.653Z,19.70
2022-08-20T19:23:24.826Z,19.70
2022-08-20T19:24:59.465Z,19.60
2022-08-20T19:26:43.710Z,19.60
2022-08-20T19:28:26.420Z,19.50
2022-08-20T19:29:59.980Z,19.40
2022-08-20T19:31:37.224Z,19.40
2022-08-20T19:33:11.134Z,19.30
2022-08-20T19:34:53.199Z,19.30
2022-08-20T19:36:28.310Z,19.20
2022-08-20T19:38:04.657Z,19.10
2022-08-20T19:39:38.667Z,19.10
2022-08-20T19:41:28.864Z,19.00
2022-08-20T19:43:14.846Z,19.00
2022-08-20T19:44:55.634Z,18.90
2022-08-20T19:46:40.615Z,18.90
2022-08-20T19:48:41.463Z,18.80
2022-08-20T19:50:24.590Z,18.80
2022-08-20T19:52:13.728Z,18.70
2022-08-20T19:53:49.931Z,18.60
2022-08-20T19:55:29.894Z,18.60
2022-08-20T19:57:08.327Z,18.60
2022-08-20T19:58:44.223Z,18.50
2022-08-20T20:00:18.339Z,18.40
2022-08-20T20:02:00.198Z,18.40
2022-08-20T20:03:38.742Z,18.30
2022-08-20T20:05:13.139Z,18.30
2022-08-20T20:06:49.953Z,18.20
2022-08-20T20:08:27.765Z,18.20
2022-08-20T20:10:01.724Z,18.10
2022-08-20T20:11:42.496Z,18.10
2022-08-20T20:13:21.258Z,18.00
2022-08-20T20:14:57.175Z,18.00
2022-08-20T20:16:31.299Z,18.00
2022-08-20T20:18:05.031Z,17.90
2022-08-20T20:19:46.425Z,17.90
2022-08-20T20:21:26.491Z,17.90
2022-08-20T20:23:13.543Z,17.80
2022-08-20T20:24:50.767Z,17.80
2022-08-20T20:26:26.007Z,17.80
2022-08-20T20:28:12.954Z,17.70
2022-08-20T20:29:46.389Z,17.70
2022-08-20T20:31:28.883Z,17.60
2022-08-20T20:33:19.327Z,17.60
2022-08-20T20:34:56.813Z,17.60
2022-08-20T20:36:37.754Z,17.50
2022-08-20T20:38:24.247Z,17.50
2022-08-20T20:40:07.108Z,17.50
2022-08-20T20:41:55.747Z,17.40
2022-08-20T20:43:33.750Z,17.40
2022-08-20T20:45:18.575Z,17.30
2022-08-20T20:47:03.824Z,17.30
2022-08-20T20:48:48.331Z,17.30
2022-08-20T20:50:34.358Z,17.20
2022-08-20T20:52:20.874Z,17.20
2022-08-20T20:53:58.163Z,17.10
2022-08-20T20:55:35.291Z,17.10